sensor_id;sensor_type;location;lat;lon;timestamp;temperature;humidity
48806;DHT22;34625;47.176;27.548;2023-08-12T00:00:32;28.00;49.40
48806;DHT22;34625;47.176;27.548;2023-08-12T00:03:07;28.00;49.40
48806;DHT22;34625;47.176;27.548;2023-08-12T00:05:56;28.00;49.40
48806;DHT22;34625;47.176;27.548;2023-08-12T00:08:22;28.00;49.40
48806;DHT22;34625;47.176;27.548;2023-08-12T00:10:48;28.00;49.50
48806;DHT22;34625;47.176;27.548;2023-08-12T00:13:14;28.00;49.50
48806;DHT22;34625;47.176;27.548;2023-08-12T00:15:44;28.10;49.50
48806;DHT22;34625;47.176;27.548;2023-08-12T00:18:10;28.00;49.50
48806;DHT22;34625;47.176;27.548;2023-08-12T00:20:42;28.00;49.50
48806;DHT22;34625;47.176;27.548;2023-08-12T00:23:08;28.10;49.60
48806;DHT22;34625;47.176;27.548;2023-08-12T00:25:34;28.00;49.60
48806;DHT22;34625;47.176;27.548;2023-08-12T00:28:00;28.10;49.60
48806;DHT22;34625;47.176;27.548;2023-08-12T00:30:26;28.00;49.60
48806;DHT22;34625;47.176;27.548;2023-08-12T00:32:53;28.10;49.60
48806;DHT22;34625;47.176;27.548;2023-08-12T00:35:19;27.90;49.00
48806;DHT22;34625;47.176;27.548;2023-08-12T00:37:45;28.00;49.50
48806;DHT22;34625;47.176;27.548;2023-08-12T00:40:12;27.90;49.00
48806;DHT22;34625;47.176;27.548;2023-08-12T00:42:39;27.90;48.90
48806;DHT22;34625;47.176;27.548;2023-08-12T00:45:11;28.10;49.50
48806;DHT22;34625;47.176;27.548;2023-08-12T00:47:39;28.00;49.50
48806;DHT22;34625;47.176;27.548;2023-08-12T00:50:14;27.90;49.20
48806;DHT22;34625;47.176;27.548;2023-08-12T00:52:41;27.90;49.20
48806;DHT22;34625;47.176;27.548;2023-08-12T00:55:08;28.00;49.80
48806;DHT22;34625;47.176;27.548;2023-08-12T00:57:35;28.00;49.80
48806;DHT22;34625;47.176;27.548;2023-08-12T01:00:06;27.90;49.30
48806;DHT22;34625;47.176;27.548;2023-08-12T01:02:32;28.00;49.90
48806;DHT22;34625;47.176;27.548;2023-08-12T01:04:58;28.00;49.90
48806;DHT22;34625;47.176;27.548;2023-08-12T01:07:25;28.00;50.00
48806;DHT22;34625;47.176;27.548;2023-08-12T01:09:51;28.00;50.00
48806;DHT22;34625;47.176;27.548;2023-08-12T01:12:31;28.00;50.00
48806;DHT22;34625;47.176;27.548;2023-08-12T01:15:29;28.00;50.00
48806;DHT22;34625;47.176;27.548;2023-08-12T01:17:56;28.00;50.00
48806;DHT22;34625;47.176;27.548;2023-08-12T01:20:25;28.10;50.00
48806;DHT22;34625;47.176;27.548;2023-08-12T01:23:12;28.00;50.00
48806;DHT22;34625;47.176;27.548;2023-08-12T01:25:39;28.00;49.90
48806;DHT22;34625;47.176;27.548;2023-08-12T01:28:06;28.00;49.90
48806;DHT22;34625;47.176;27.548;2023-08-12T01:33:42;27.90;49.40
48806;DHT22;34625;47.176;27.548;2023-08-12T01:36:12;27.90;49.50
48806;DHT22;34625;47.176;27.548;2023-08-12T01:38:42;27.90;49.50
48806;DHT22;34625;47.176;27.548;2023-08-12T01:41:10;27.80;49.60
48806;DHT22;34625;47.176;27.548;2023-08-12T01:43:38;27.80;49.60
48806;DHT22;34625;47.176;27.548;2023-08-12T01:46:04;27.80;49.60
48806;DHT22;34625;47.176;27.548;2023-08-12T01:48:30;27.80;49.70
48806;DHT22;34625;47.176;27.548;2023-08-12T01:50:56;27.90;49.70
48806;DHT22;34625;47.176;27.548;2023-08-12T01:53:23;28.00;50.30
48806;DHT22;34625;47.176;27.548;2023-08-12T01:55:49;27.90;49.70
48806;DHT22;34625;47.176;27.548;2023-08-12T01:58:16;27.90;49.70
48806;DHT22;34625;47.176;27.548;2023-08-12T02:00:43;27.80;49.70
48806;DHT22;34625;47.176;27.548;2023-08-12T02:03:09;28.00;50.30
48806;DHT22;34625;47.176;27.548;2023-08-12T02:05:35;28.00;50.30
48806;DHT22;34625;47.176;27.548;2023-08-12T02:08:04;27.90;49.70
48806;DHT22;34625;47.176;27.548;2023-08-12T02:10:34;28.10;50.30
48806;DHT22;34625;47.176;27.548;2023-08-12T02:13:00;27.80;49.70
48806;DHT22;34625;47.176;27.548;2023-08-12T02:15:27;27.90;49.70
48806;DHT22;34625;47.176;27.548;2023-08-12T02:17:53;27.90;49.70
48806;DHT22;34625;47.176;27.548;2023-08-12T02:20:19;27.90;49.70
48806;DHT22;34625;47.176;27.548;2023-08-12T02:22:45;27.90;49.80
48806;DHT22;34625;47.176;27.548;2023-08-12T02:25:12;27.80;49.80
48806;DHT22;34625;47.176;27.548;2023-08-12T02:27:39;27.80;49.80
48806;DHT22;34625;47.176;27.548;2023-08-12T02:30:06;27.80;49.90
48806;DHT22;34625;47.176;27.548;2023-08-12T02:32:35;27.80;49.90
48806;DHT22;34625;47.176;27.548;2023-08-12T02:35:01;27.80;50.00
48806;DHT22;34625;47.176;27.548;2023-08-12T02:37:30;27.80;50.00
48806;DHT22;34625;47.176;27.548;2023-08-12T02:39:56;27.90;50.00
48806;DHT22;34625;47.176;27.548;2023-08-12T02:42:22;27.80;50.00
48806;DHT22;34625;47.176;27.548;2023-08-12T02:44:48;27.80;50.00
48806;DHT22;34625;47.176;27.548;2023-08-12T02:47:14;28.00;50.60
48806;DHT22;34625;47.176;27.548;2023-08-12T02:49:41;27.90;50.00
48806;DHT22;34625;47.176;27.548;2023-08-12T02:52:10;27.90;50.00
48806;DHT22;34625;47.176;27.548;2023-08-12T02:54:36;27.90;50.00
48806;DHT22;34625;47.176;27.548;2023-08-12T02:57:03;27.90;50.00
48806;DHT22;34625;47.176;27.548;2023-08-12T02:59:29;27.90;50.00
48806;DHT22;34625;47.176;27.548;2023-08-12T03:01:55;27.80;50.00
48806;DHT22;34625;47.176;27.548;2023-08-12T03:04:22;27.80;50.00
48806;DHT22;34625;47.176;27.548;2023-08-12T03:06:48;27.80;50.00
48806;DHT22;34625;47.176;27.548;2023-08-12T03:09:15;27.90;50.00
48806;DHT22;34625;47.176;27.548;2023-08-12T03:11:45;27.80;50.10
48806;DHT22;34625;47.176;27.548;2023-08-12T03:14:11;27.70;50.10
48806;DHT22;34625;47.176;27.548;2023-08-12T03:16:37;27.80;50.20
48806;DHT22;34625;47.176;27.548;2023-08-12T03:19:07;27.90;50.20
48806;DHT22;34625;47.176;27.548;2023-08-12T03:21:33;27.70;50.30
48806;DHT22;34625;47.176;27.548;2023-08-12T03:24:00;27.70;50.30
48806;DHT22;34625;47.176;27.548;2023-08-12T03:26:27;27.80;50.30
48806;DHT22;34625;47.176;27.548;2023-08-12T03:28:55;27.90;50.30
48806;DHT22;34625;47.176;27.548;2023-08-12T03:31:27;27.90;50.30
48806;DHT22;34625;47.176;27.548;2023-08-12T03:33:53;27.70;50.30
48806;DHT22;34625;47.176;27.548;2023-08-12T03:36:19;27.80;50.30
48806;DHT22;34625;47.176;27.548;2023-08-12T03:38:52;27.80;50.30
48806;DHT22;34625;47.176;27.548;2023-08-12T03:41:22;27.90;50.40
48806;DHT22;34625;47.176;27.548;2023-08-12T03:43:49;27.80;50.30
48806;DHT22;34625;47.176;27.548;2023-08-12T03:46:20;27.90;50.20
48806;DHT22;34625;47.176;27.548;2023-08-12T03:48:46;27.90;49.70
48806;DHT22;34625;47.176;27.548;2023-08-12T03:51:14;27.90;49.20
48806;DHT22;34625;47.176;27.548;2023-08-12T03:53:41;27.70;47.50
48806;DHT22;34625;47.176;27.548;2023-08-12T03:56:07;27.70;46.90
48806;DHT22;34625;47.176;27.548;2023-08-12T03:58:39;27.70;47.40
48806;DHT22;34625;47.176;27.548;2023-08-12T04:01:06;27.80;47.00
48806;DHT22;34625;47.176;27.548;2023-08-12T04:03:32;27.60;46.60
48806;DHT22;34625;47.176;27.548;2023-08-12T04:05:58;27.70;46.70
48806;DHT22;34625;47.176;27.548;2023-08-12T04:08:24;27.70;46.40
48806;DHT22;34625;47.176;27.548;2023-08-12T04:10:57;27.70;46.20
48806;DHT22;34625;47.176;27.548;2023-08-12T04:13:25;27.80;48.00
48806;DHT22;34625;47.176;27.548;2023-08-12T04:15:51;28.10;50.20
48806;DHT22;34625;47.176;27.548;2023-08-12T04:18:19;28.30;55.70
48806;DHT22;34625;47.176;27.548;2023-08-12T04:20:46;28.50;56.00
48806;DHT22;34625;47.176;27.548;2023-08-12T04:23:13;28.50;49.30
48806;DHT22;34625;47.176;27.548;2023-08-12T04:25:40;28.20;49.20
48806;DHT22;34625;47.176;27.548;2023-08-12T04:28:06;28.20;48.60
48806;DHT22;34625;47.176;27.548;2023-08-12T04:30:33;28.00;48.50
48806;DHT22;34625;47.176;27.548;2023-08-12T04:33:01;28.10;48.60
48806;DHT22;34625;47.176;27.548;2023-08-12T04:35:31;28.10;48.40
48806;DHT22;34625;47.176;27.548;2023-08-12T04:37:58;28.00;48.40
48806;DHT22;34625;47.176;27.548;2023-08-12T04:40:25;28.00;48.40
48806;DHT22;34625;47.176;27.548;2023-08-12T04:42:51;28.10;48.40
48806;DHT22;34625;47.176;27.548;2023-08-12T04:45:18;28.10;48.50
48806;DHT22;34625;47.176;27.548;2023-08-12T04:47:45;28.00;48.60
48806;DHT22;34625;47.176;27.548;2023-08-12T04:50:13;28.00;48.70
48806;DHT22;34625;47.176;27.548;2023-08-12T04:52:39;28.10;48.60
48806;DHT22;34625;47.176;27.548;2023-08-12T04:55:06;28.00;46.70
48806;DHT22;34625;47.176;27.548;2023-08-12T04:57:33;28.00;45.60
48806;DHT22;34625;47.176;27.548;2023-08-12T04:59:59;27.80;45.30
48806;DHT22;34625;47.176;27.548;2023-08-12T05:02:25;28.00;44.50
48806;DHT22;34625;47.176;27.548;2023-08-12T05:04:52;27.80;47.00
48806;DHT22;34625;47.176;27.548;2023-08-12T05:07:18;27.90;45.60
48806;DHT22;34625;47.176;27.548;2023-08-12T05:09:45;27.80;45.20
48806;DHT22;34625;47.176;27.548;2023-08-12T05:12:13;28.00;46.10
48806;DHT22;34625;47.176;27.548;2023-08-12T05:14:40;28.00;46.30
48806;DHT22;34625;47.176;27.548;2023-08-12T05:17:07;28.00;46.60
48806;DHT22;34625;47.176;27.548;2023-08-12T05:19:35;27.90;46.30
48806;DHT22;34625;47.176;27.548;2023-08-12T05:22:04;27.80;46.10
48806;DHT22;34625;47.176;27.548;2023-08-12T05:24:30;27.80;46.30
48806;DHT22;34625;47.176;27.548;2023-08-12T05:26:56;27.70;44.40
48806;DHT22;34625;47.176;27.548;2023-08-12T05:29:22;27.50;43.90
48806;DHT22;34625;47.176;27.548;2023-08-12T05:31:49;27.40;44.30
48806;DHT22;34625;47.176;27.548;2023-08-12T05:34:15;27.40;45.20
48806;DHT22;34625;47.176;27.548;2023-08-12T05:36:41;27.30;45.40
48806;DHT22;34625;47.176;27.548;2023-08-12T05:39:07;27.30;45.60
48806;DHT22;34625;47.176;27.548;2023-08-12T05:41:42;27.30;45.60
48806;DHT22;34625;47.176;27.548;2023-08-12T05:44:09;27.30;47.40
48806;DHT22;34625;47.176;27.548;2023-08-12T05:46:35;27.30;47.60
48806;DHT22;34625;47.176;27.548;2023-08-12T05:49:01;27.50;46.70
48806;DHT22;34625;47.176;27.548;2023-08-12T05:52:00;27.40;47.40
48806;DHT22;34625;47.176;27.548;2023-08-12T05:54:26;27.50;47.70
48806;DHT22;34625;47.176;27.548;2023-08-12T05:56:52;27.50;48.00
48806;DHT22;34625;47.176;27.548;2023-08-12T05:59:19;27.60;48.40
48806;DHT22;34625;47.176;27.548;2023-08-12T06:01:57;27.50;48.40
48806;DHT22;34625;47.176;27.548;2023-08-12T06:04:23;27.50;48.00
48806;DHT22;34625;47.176;27.548;2023-08-12T06:06:51;27.30;45.80
48806;DHT22;34625;47.176;27.548;2023-08-12T06:09:17;27.30;46.50
48806;DHT22;34625;47.176;27.548;2023-08-12T06:11:43;27.40;47.20
48806;DHT22;34625;47.176;27.548;2023-08-12T06:14:10;27.50;46.30
48806;DHT22;34625;47.176;27.548;2023-08-12T06:16:56;27.40;45.70
48806;DHT22;34625;47.176;27.548;2023-08-12T06:19:22;27.40;45.30
48806;DHT22;34625;47.176;27.548;2023-08-12T06:22:08;27.40;45.70
48806;DHT22;34625;47.176;27.548;2023-08-12T06:24:55;27.60;45.60
48806;DHT22;34625;47.176;27.548;2023-08-12T06:27:24;27.60;45.30
48806;DHT22;34625;47.176;27.548;2023-08-12T06:29:50;27.60;45.20
48806;DHT22;34625;47.176;27.548;2023-08-12T06:32:29;27.60;45.10
48806;DHT22;34625;47.176;27.548;2023-08-12T06:34:55;27.60;45.00
48806;DHT22;34625;47.176;27.548;2023-08-12T06:37:22;27.70;45.20
48806;DHT22;34625;47.176;27.548;2023-08-12T06:39:48;27.70;45.50
48806;DHT22;34625;47.176;27.548;2023-08-12T06:42:33;27.60;45.60
48806;DHT22;34625;47.176;27.548;2023-08-12T06:45:32;27.70;45.30
48806;DHT22;34625;47.176;27.548;2023-08-12T06:48:14;27.70;45.20
48806;DHT22;34625;47.176;27.548;2023-08-12T06:50:54;27.70;45.50
48806;DHT22;34625;47.176;27.548;2023-08-12T06:53:39;27.80;45.80
48806;DHT22;34625;47.176;27.548;2023-08-12T06:56:25;27.70;46.00
48806;DHT22;34625;47.176;27.548;2023-08-12T06:58:52;27.70;46.10
48806;DHT22;34625;47.176;27.548;2023-08-12T07:01:19;27.90;45.90
48806;DHT22;34625;47.176;27.548;2023-08-12T07:03:51;27.80;46.10
48806;DHT22;34625;47.176;27.548;2023-08-12T07:06:18;27.80;46.00
48806;DHT22;34625;47.176;27.548;2023-08-12T07:08:44;27.90;46.20
48806;DHT22;34625;47.176;27.548;2023-08-12T07:11:10;27.80;46.20
48806;DHT22;34625;47.176;27.548;2023-08-12T07:13:36;27.90;46.50
48806;DHT22;34625;47.176;27.548;2023-08-12T07:16:03;27.90;46.80
48806;DHT22;34625;47.176;27.548;2023-08-12T07:18:32;27.90;47.00
48806;DHT22;34625;47.176;27.548;2023-08-12T07:20:58;27.90;47.30
48806;DHT22;34625;47.176;27.548;2023-08-12T07:23:25;27.80;46.80
48806;DHT22;34625;47.176;27.548;2023-08-12T07:26:24;28.00;47.90
48806;DHT22;34625;47.176;27.548;2023-08-12T07:28:50;28.00;48.60
48806;DHT22;34625;47.176;27.548;2023-08-12T07:31:17;27.90;49.20
48806;DHT22;34625;47.176;27.548;2023-08-12T07:33:44;27.90;49.70
48806;DHT22;34625;47.176;27.548;2023-08-12T07:36:10;28.10;50.60
48806;DHT22;34625;47.176;27.548;2023-08-12T07:38:36;28.00;51.40
48806;DHT22;34625;47.176;27.548;2023-08-12T07:41:03;28.10;50.00
48806;DHT22;34625;47.176;27.548;2023-08-12T07:43:29;28.20;49.10
48806;DHT22;34625;47.176;27.548;2023-08-12T07:45:55;28.10;48.60
48806;DHT22;34625;47.176;27.548;2023-08-12T07:48:21;28.00;48.30
48806;DHT22;34625;47.176;27.548;2023-08-12T07:50:47;28.10;48.00
48806;DHT22;34625;47.176;27.548;2023-08-12T07:53:16;28.10;47.50
48806;DHT22;34625;47.176;27.548;2023-08-12T07:56:15;28.10;47.60
48806;DHT22;34625;47.176;27.548;2023-08-12T07:58:44;28.10;47.80
48806;DHT22;34625;47.176;27.548;2023-08-12T08:01:11;28.10;47.80
48806;DHT22;34625;47.176;27.548;2023-08-12T08:03:38;28.10;47.70
48806;DHT22;34625;47.176;27.548;2023-08-12T08:06:05;28.00;47.50
48806;DHT22;34625;47.176;27.548;2023-08-12T08:08:31;28.00;47.20
48806;DHT22;34625;47.176;27.548;2023-08-12T08:10:57;28.20;46.80
48806;DHT22;34625;47.176;27.548;2023-08-12T08:13:23;28.10;46.70
48806;DHT22;34625;47.176;27.548;2023-08-12T08:15:49;28.10;46.60
48806;DHT22;34625;47.176;27.548;2023-08-12T08:18:15;28.10;46.40
48806;DHT22;34625;47.176;27.548;2023-08-12T08:20:44;28.10;46.10
48806;DHT22;34625;47.176;27.548;2023-08-12T08:23:10;28.10;45.90
48806;DHT22;34625;47.176;27.548;2023-08-12T08:25:37;28.00;45.70
48806;DHT22;34625;47.176;27.548;2023-08-12T08:28:03;28.00;45.50
48806;DHT22;34625;47.176;27.548;2023-08-12T08:30:29;28.00;45.50
48806;DHT22;34625;47.176;27.548;2023-08-12T08:32:55;28.10;45.60
48806;DHT22;34625;47.176;27.548;2023-08-12T08:35:21;28.00;45.60
48806;DHT22;34625;47.176;27.548;2023-08-12T08:37:48;28.00;45.50
48806;DHT22;34625;47.176;27.548;2023-08-12T08:40:14;28.00;45.40
48806;DHT22;34625;47.176;27.548;2023-08-12T08:42:41;28.00;45.40
48806;DHT22;34625;47.176;27.548;2023-08-12T08:45:12;28.10;45.20
48806;DHT22;34625;47.176;27.548;2023-08-12T08:47:39;28.10;45.10
48806;DHT22;34625;47.176;27.548;2023-08-12T08:50:06;28.00;45.20
48806;DHT22;34625;47.176;27.548;2023-08-12T08:52:34;28.00;45.20
48806;DHT22;34625;47.176;27.548;2023-08-12T08:55:01;28.00;44.80
48806;DHT22;34625;47.176;27.548;2023-08-12T08:57:30;28.00;44.80
48806;DHT22;34625;47.176;27.548;2023-08-12T08:59:56;28.00;44.60
48806;DHT22;34625;47.176;27.548;2023-08-12T09:02:23;28.00;44.50
48806;DHT22;34625;47.176;27.548;2023-08-12T09:04:50;28.00;44.40
48806;DHT22;34625;47.176;27.548;2023-08-12T09:07:18;27.90;44.40
48806;DHT22;34625;47.176;27.548;2023-08-12T09:09:46;28.00;45.30
48806;DHT22;34625;47.176;27.548;2023-08-12T09:12:15;28.00;45.50
48806;DHT22;34625;47.176;27.548;2023-08-12T09:14:43;28.10;45.60
48806;DHT22;34625;47.176;27.548;2023-08-12T09:17:09;28.00;45.60
48806;DHT22;34625;47.176;27.548;2023-08-12T09:19:36;28.00;45.60
48806;DHT22;34625;47.176;27.548;2023-08-12T09:22:05;28.00;45.70
48806;DHT22;34625;47.176;27.548;2023-08-12T09:24:33;28.00;45.80
48806;DHT22;34625;47.176;27.548;2023-08-12T09:26:59;28.00;45.80
48806;DHT22;34625;47.176;27.548;2023-08-12T09:29:32;28.00;45.80
48806;DHT22;34625;47.176;27.548;2023-08-12T09:32:18;28.00;45.80
48806;DHT22;34625;47.176;27.548;2023-08-12T09:34:55;28.10;46.00
48806;DHT22;34625;47.176;27.548;2023-08-12T09:37:23;28.00;46.10
48806;DHT22;34625;47.176;27.548;2023-08-12T09:39:51;27.90;45.40
48806;DHT22;34625;47.176;27.548;2023-08-12T09:42:29;28.10;46.10
48806;DHT22;34625;47.176;27.548;2023-08-12T09:44:56;28.00;46.20
48806;DHT22;34625;47.176;27.548;2023-08-12T09:47:25;27.90;45.80
48806;DHT22;34625;47.176;27.548;2023-08-12T09:49:55;28.00;46.30
48806;DHT22;34625;47.176;27.548;2023-08-12T09:52:22;28.00;46.40
48806;DHT22;34625;47.176;27.548;2023-08-12T09:54:49;28.00;46.40
48806;DHT22;34625;47.176;27.548;2023-08-12T09:57:18;28.00;46.40
48806;DHT22;34625;47.176;27.548;2023-08-12T09:59:46;28.10;46.50
48806;DHT22;34625;47.176;27.548;2023-08-12T10:02:15;28.00;46.50
48806;DHT22;34625;47.176;27.548;2023-08-12T10:04:45;28.00;46.60
48806;DHT22;34625;47.176;27.548;2023-08-12T10:07:11;28.10;46.60
48806;DHT22;34625;47.176;27.548;2023-08-12T10:09:40;28.10;46.60
48806;DHT22;34625;47.176;27.548;2023-08-12T10:12:08;28.00;46.60
48806;DHT22;34625;47.176;27.548;2023-08-12T10:14:35;28.10;46.60
48806;DHT22;34625;47.176;27.548;2023-08-12T10:17:01;28.00;46.60
48806;DHT22;34625;47.176;27.548;2023-08-12T10:19:28;27.90;46.00
48806;DHT22;34625;47.176;27.548;2023-08-12T10:21:58;28.00;46.60
48806;DHT22;34625;47.176;27.548;2023-08-12T10:24:27;27.90;46.00
48806;DHT22;34625;47.176;27.548;2023-08-12T10:26:54;27.90;46.00
48806;DHT22;34625;47.176;27.548;2023-08-12T10:29:26;27.90;46.10
48806;DHT22;34625;47.176;27.548;2023-08-12T10:31:52;27.90;46.20
48806;DHT22;34625;47.176;27.548;2023-08-12T10:34:24;27.90;47.30
48806;DHT22;34625;47.176;27.548;2023-08-12T10:36:59;27.90;48.00
48806;DHT22;34625;47.176;27.548;2023-08-12T10:39:27;28.00;52.30
48806;DHT22;34625;47.176;27.548;2023-08-12T10:41:55;28.00;48.60
48806;DHT22;34625;47.176;27.548;2023-08-12T10:44:26;28.10;47.90
48806;DHT22;34625;47.176;27.548;2023-08-12T10:46:52;28.10;46.40
48806;DHT22;34625;47.176;27.548;2023-08-12T10:49:20;28.00;46.90
48806;DHT22;34625;47.176;27.548;2023-08-12T10:51:50;28.00;46.70
48806;DHT22;34625;47.176;27.548;2023-08-12T10:54:23;28.20;46.80
48806;DHT22;34625;47.176;27.548;2023-08-12T10:57:08;28.00;46.30
48806;DHT22;34625;47.176;27.548;2023-08-12T11:02:24;28.20;45.50
48806;DHT22;34625;47.176;27.548;2023-08-12T11:05:04;28.10;45.40
48806;DHT22;34625;47.176;27.548;2023-08-12T11:07:46;28.20;45.20
48806;DHT22;34625;47.176;27.548;2023-08-12T11:10:16;28.10;45.00
48806;DHT22;34625;47.176;27.548;2023-08-12T11:15:34;28.30;44.90
48806;DHT22;34625;47.176;27.548;2023-08-12T11:18:06;28.30;44.70
48806;DHT22;34625;47.176;27.548;2023-08-12T11:20:33;28.30;44.80
48806;DHT22;34625;47.176;27.548;2023-08-12T11:23:05;28.30;44.80
48806;DHT22;34625;47.176;27.548;2023-08-12T11:25:33;28.30;44.70
48806;DHT22;34625;47.176;27.548;2023-08-12T11:27:59;28.40;44.70
48806;DHT22;34625;47.176;27.548;2023-08-12T11:30:25;28.30;45.10
48806;DHT22;34625;47.176;27.548;2023-08-12T11:32:53;28.40;45.70
48806;DHT22;34625;47.176;27.548;2023-08-12T11:35:21;28.40;45.10
48806;DHT22;34625;47.176;27.548;2023-08-12T11:37:49;28.50;47.00
48806;DHT22;34625;47.176;27.548;2023-08-12T11:40:19;28.70;47.00
48806;DHT22;34625;47.176;27.548;2023-08-12T11:42:47;28.70;47.20
48806;DHT22;34625;47.176;27.548;2023-08-12T11:45:18;28.60;48.50
48806;DHT22;34625;47.176;27.548;2023-08-12T11:47:45;28.70;45.80
48806;DHT22;34625;47.176;27.548;2023-08-12T11:50:20;28.70;45.90
48806;DHT22;34625;47.176;27.548;2023-08-12T11:52:46;28.60;45.10
48806;DHT22;34625;47.176;27.548;2023-08-12T11:55:13;28.50;45.10
48806;DHT22;34625;47.176;27.548;2023-08-12T11:57:39;28.60;45.10
48806;DHT22;34625;47.176;27.548;2023-08-12T12:00:08;28.60;45.00
48806;DHT22;34625;47.176;27.548;2023-08-12T12:02:41;28.50;44.80
48806;DHT22;34625;47.176;27.548;2023-08-12T12:05:14;28.60;44.90
48806;DHT22;34625;47.176;27.548;2023-08-12T12:07:41;28.50;44.60
48806;DHT22;34625;47.176;27.548;2023-08-12T12:10:08;28.50;44.60
48806;DHT22;34625;47.176;27.548;2023-08-12T12:12:35;28.60;44.30
48806;DHT22;34625;47.176;27.548;2023-08-12T12:15:02;28.50;44.10
48806;DHT22;34625;47.176;27.548;2023-08-12T12:17:29;28.60;44.20
48806;DHT22;34625;47.176;27.548;2023-08-12T12:19:57;28.60;44.20
48806;DHT22;34625;47.176;27.548;2023-08-12T12:22:28;28.60;44.20
48806;DHT22;34625;47.176;27.548;2023-08-12T12:24:58;28.60;44.20
48806;DHT22;34625;47.176;27.548;2023-08-12T12:27:25;28.60;44.20
48806;DHT22;34625;47.176;27.548;2023-08-12T12:29:52;28.60;44.40
48806;DHT22;34625;47.176;27.548;2023-08-12T12:32:19;28.60;44.50
48806;DHT22;34625;47.176;27.548;2023-08-12T12:34:46;28.70;44.50
48806;DHT22;34625;47.176;27.548;2023-08-12T12:37:13;28.50;44.50
48806;DHT22;34625;47.176;27.548;2023-08-12T12:39:40;28.50;44.40
48806;DHT22;34625;47.176;27.548;2023-08-12T12:42:27;28.50;44.40
48806;DHT22;34625;47.176;27.548;2023-08-12T12:44:53;28.60;44.50
48806;DHT22;34625;47.176;27.548;2023-08-12T12:47:19;28.50;44.40
48806;DHT22;34625;47.176;27.548;2023-08-12T12:49:45;28.60;44.30
48806;DHT22;34625;47.176;27.548;2023-08-12T12:52:11;28.50;44.10
48806;DHT22;34625;47.176;27.548;2023-08-12T12:54:37;28.50;44.00
48806;DHT22;34625;47.176;27.548;2023-08-12T12:57:04;28.50;44.20
48806;DHT22;34625;47.176;27.548;2023-08-12T12:59:30;28.40;44.60
48806;DHT22;34625;47.176;27.548;2023-08-12T13:01:56;28.20;44.70
48806;DHT22;34625;47.176;27.548;2023-08-12T13:04:22;28.40;44.60
48806;DHT22;34625;47.176;27.548;2023-08-12T13:06:48;28.30;44.40
48806;DHT22;34625;47.176;27.548;2023-08-12T13:09:14;28.40;44.10
48806;DHT22;34625;47.176;27.548;2023-08-12T13:11:40;28.30;43.90
48806;DHT22;34625;47.176;27.548;2023-08-12T13:14:07;28.20;44.70
48806;DHT22;34625;47.176;27.548;2023-08-12T13:16:33;28.30;44.80
48806;DHT22;34625;47.176;27.548;2023-08-12T13:18:59;28.30;44.80
48806;DHT22;34625;47.176;27.548;2023-08-12T13:21:26;28.20;44.90
48806;DHT22;34625;47.176;27.548;2023-08-12T13:23:52;28.30;45.00
48806;DHT22;34625;47.176;27.548;2023-08-12T13:26:20;28.10;45.90
48806;DHT22;34625;47.176;27.548;2023-08-12T13:28:47;28.40;46.10
48806;DHT22;34625;47.176;27.548;2023-08-12T13:31:13;28.20;46.10
48806;DHT22;34625;47.176;27.548;2023-08-12T13:33:40;28.20;46.20
48806;DHT22;34625;47.176;27.548;2023-08-12T13:36:06;28.30;46.30
48806;DHT22;34625;47.176;27.548;2023-08-12T13:38:32;28.20;46.30
48806;DHT22;34625;47.176;27.548;2023-08-12T13:40:58;28.30;46.40
48806;DHT22;34625;47.176;27.548;2023-08-12T13:43:25;28.30;46.40
48806;DHT22;34625;47.176;27.548;2023-08-12T13:45:51;28.20;46.50
48806;DHT22;34625;47.176;27.548;2023-08-12T13:48:17;28.30;46.50
48806;DHT22;34625;47.176;27.548;2023-08-12T13:50:43;28.20;46.40
48806;DHT22;34625;47.176;27.548;2023-08-12T13:53:09;28.30;46.40
48806;DHT22;34625;47.176;27.548;2023-08-12T13:55:35;28.30;46.50
48806;DHT22;34625;47.176;27.548;2023-08-12T13:58:01;28.30;46.80
48806;DHT22;34625;47.176;27.548;2023-08-12T14:00:27;28.20;46.80
48806;DHT22;34625;47.176;27.548;2023-08-12T14:02:53;28.10;46.80
48806;DHT22;34625;47.176;27.548;2023-08-12T14:05:19;28.20;46.60
48806;DHT22;34625;47.176;27.548;2023-08-12T14:07:46;28.10;46.50
48806;DHT22;34625;47.176;27.548;2023-08-12T14:10:12;28.20;47.10
48806;DHT22;34625;47.176;27.548;2023-08-12T14:12:38;28.00;47.20
48806;DHT22;34625;47.176;27.548;2023-08-12T14:15:04;28.10;47.00
48806;DHT22;34625;47.176;27.548;2023-08-12T14:17:31;28.00;47.00
48806;DHT22;34625;47.176;27.548;2023-08-12T14:19:57;28.00;46.90
48806;DHT22;34625;47.176;27.548;2023-08-12T14:22:39;28.00;46.90
48806;DHT22;34625;47.176;27.548;2023-08-12T14:25:06;28.10;46.90
48806;DHT22;34625;47.176;27.548;2023-08-12T14:27:43;28.00;46.90
48806;DHT22;34625;47.176;27.548;2023-08-12T14:30:10;28.00;46.90
48806;DHT22;34625;47.176;27.548;2023-08-12T14:32:36;28.20;47.90
48806;DHT22;34625;47.176;27.548;2023-08-12T14:35:03;28.20;47.20
48806;DHT22;34625;47.176;27.548;2023-08-12T14:37:34;28.20;46.90
48806;DHT22;34625;47.176;27.548;2023-08-12T14:40:00;28.20;46.70
48806;DHT22;34625;47.176;27.548;2023-08-12T14:42:26;28.20;46.60
48806;DHT22;34625;47.176;27.548;2023-08-12T14:44:52;28.10;46.60
48806;DHT22;34625;47.176;27.548;2023-08-12T14:47:18;28.10;46.60
48806;DHT22;34625;47.176;27.548;2023-08-12T14:49:44;28.10;46.60
48806;DHT22;34625;47.176;27.548;2023-08-12T14:52:19;28.10;46.70
48806;DHT22;34625;47.176;27.548;2023-08-12T14:54:48;28.10;46.70
48806;DHT22;34625;47.176;27.548;2023-08-12T14:57:20;28.20;48.10
48806;DHT22;34625;47.176;27.548;2023-08-12T14:59:46;28.40;47.60
48806;DHT22;34625;47.176;27.548;2023-08-12T15:02:20;28.30;48.20
48806;DHT22;34625;47.176;27.548;2023-08-12T15:04:48;28.50;49.10
48806;DHT22;34625;47.176;27.548;2023-08-12T15:07:14;28.60;49.80
48806;DHT22;34625;47.176;27.548;2023-08-12T15:09:42;28.50;48.90
48806;DHT22;34625;47.176;27.548;2023-08-12T15:12:08;28.60;47.10
48806;DHT22;34625;47.176;27.548;2023-08-12T15:14:34;28.50;45.50
48806;DHT22;34625;47.176;27.548;2023-08-12T15:17:00;28.50;44.60
48806;DHT22;34625;47.176;27.548;2023-08-12T15:19:26;28.60;45.20
48806;DHT22;34625;47.176;27.548;2023-08-12T15:21:52;28.50;45.60
48806;DHT22;34625;47.176;27.548;2023-08-12T15:24:18;28.40;45.70
48806;DHT22;34625;47.176;27.548;2023-08-12T15:26:44;28.40;46.00
48806;DHT22;34625;47.176;27.548;2023-08-12T15:29:10;28.50;46.20
48806;DHT22;34625;47.176;27.548;2023-08-12T15:31:37;28.50;45.80